createdAt,value
2022-12-11T00:00:08.206Z,77.71
2022-12-11T00:03:15.599Z,77.44
2022-12-11T00:06:20.966Z,77.03
2022-12-11T00:09:23.615Z,77.71
2022-12-11T00:12:25.912Z,76.72
2022-12-11T00:15:29.472Z,77.00
2022-12-11T00:18:31.748Z,77.78
2022-12-11T00:21:34.407Z,78.31
2022-12-11T00:24:36.677Z,77.97
2022-12-11T00:27:39.259Z,77.37
2022-12-11T00:30:44.734Z,77.34
2022-12-11T00:33:49.371Z,77.25
2022-12-11T00:36:51.686Z,77.23
2022-12-11T00:39:54.023Z,77.84
2022-12-11T00:42:56.320Z,77.87
2022-12-11T00:45:58.993Z,78.46
2022-12-11T00:49:01.263Z,78.57
2022-12-11T00:52:03.593Z,77.32
2022-12-11T00:55:06.222Z,76.68
2022-12-11T00:58:09.337Z,76.87
2022-12-11T01:01:18.774Z,76.50
2022-12-11T01:04:21.029Z,77.16
2022-12-11T01:07:23.400Z,76.49
2022-12-11T01:10:26.871Z,75.81
2022-12-11T01:13:29.393Z,75.93
2022-12-11T01:16:31.801Z,75.88
2022-12-11T01:19:34.132Z,76.16
2022-12-11T01:22:36.406Z,75.26
2022-12-11T01:25:39.316Z,73.87
2022-12-11T01:28:42.587Z,74.89
2022-12-11T01:31:44.882Z,75.14
2022-12-11T01:34:47.103Z,76.45
2022-12-11T01:37:49.807Z,77.29
2022-12-11T01:40:52.523Z,75.58
2022-12-11T01:44:08.517Z,75.08
2022-12-11T01:47:11.460Z,74.85
2022-12-11T01:50:13.983Z,75.45
2022-12-11T01:53:29.440Z,75.58
2022-12-11T01:56:33.117Z,76.08
2022-12-11T01:59:38.223Z,75.28
2022-12-11T02:02:40.619Z,75.32
2022-12-11T02:05:42.923Z,76.39
2022-12-11T02:08:45.356Z,74.20
2022-12-11T02:11:59.947Z,75.28
2022-12-11T02:15:15.327Z,74.00
2022-12-11T02:18:26.172Z,74.52
2022-12-11T02:21:37.598Z,74.67
2022-12-11T02:24:48.976Z,73.33
2022-12-11T02:27:56.744Z,73.25
2022-12-11T02:31:07.530Z,73.15
2022-12-11T02:34:13.907Z,72.61
2022-12-11T02:37:19.597Z,73.67
2022-12-11T02:40:25.658Z,73.98
2022-12-11T02:43:29.124Z,72.98
2022-12-11T02:46:33.300Z,74.24
2022-12-11T02:49:35.811Z,72.78
2022-12-11T02:52:39.436Z,73.47
2022-12-11T02:55:42.745Z,73.65
2022-12-11T02:58:55.319Z,75.62
2022-12-11T03:02:01.078Z,74.29
2022-12-11T03:05:04.427Z,75.24
2022-12-11T03:08:06.841Z,74.31
2022-12-11T03:11:13.089Z,75.78
2022-12-11T03:14:15.502Z,73.61
2022-12-11T03:17:22.519Z,73.68
2022-12-11T03:20:27.688Z,72.91
2022-12-11T03:24:10.460Z,73.05
2022-12-11T03:27:19.894Z,72.75
2022-12-11T03:30:24.040Z,74.83
2022-12-11T03:33:31.512Z,74.35
2022-12-11T03:36:36.564Z,73.71
2022-12-11T03:39:42.569Z,72.38
2022-12-11T03:42:47.832Z,71.97
2022-12-11T03:45:51.955Z,72.57
2022-12-11T03:48:55.189Z,73.06
2022-12-11T03:51:58.485Z,74.01
2022-12-11T03:55:02.020Z,71.13
2022-12-11T03:58:05.240Z,72.04
2022-12-11T04:01:11.949Z,71.13
2022-12-11T04:04:14.595Z,72.03
2022-12-11T04:07:17.122Z,72.80
2022-12-11T04:10:19.434Z,74.17
2022-12-11T04:13:21.700Z,73.71
2022-12-11T04:16:24.116Z,72.25
2022-12-11T04:19:45.526Z,71.79
2022-12-11T04:23:06.443Z,72.49
2022-12-11T04:26:15.095Z,72.84
2022-12-11T04:29:17.437Z,72.27
2022-12-11T04:32:19.725Z,72.29
2022-12-11T04:35:22.335Z,73.72
2022-12-11T04:38:24.811Z,73.18
2022-12-11T04:41:27.168Z,71.56
2022-12-11T04:44:29.469Z,74.68
2022-12-11T04:47:32.125Z,73.55
2022-12-11T04:50:34.783Z,73.29
2022-12-11T04:53:38.101Z,72.91
2022-12-11T04:56:40.735Z,72.42
2022-12-11T04:59:42.995Z,73.66
2022-12-11T05:02:45.364Z,71.03
2022-12-11T05:05:52.171Z,72.48
2022-12-11T05:08:54.429Z,71.94
2022-12-11T05:11:56.743Z,73.05
2022-12-11T05:14:59.046Z,71.57
2022-12-11T05:18:01.528Z,72.55
2022-12-11T05:21:07.110Z,72.73
2022-12-11T05:24:09.443Z,72.37
2022-12-11T05:27:12.287Z,72.69
2022-12-11T05:30:14.509Z,72.59
2022-12-11T05:33:16.718Z,71.61
2022-12-11T05:36:30.520Z,73.02
2022-12-11T05:39:32.829Z,73.01
2022-12-11T05:42:35.232Z,72.46
2022-12-11T05:45:37.516Z,72.93
2022-12-11T05:48:40.562Z,71.52
2022-12-11T05:51:43.883Z,72.13
2022-12-11T05:54:49.414Z,72.06
2022-12-11T05:57:51.779Z,71.65
2022-12-11T06:00:54.107Z,71.66
2022-12-11T06:03:57.235Z,73.35
2022-12-11T06:06:59.471Z,71.78
2022-12-11T06:10:01.880Z,71.72
2022-12-11T06:13:04.458Z,72.44
2022-12-11T06:16:07.737Z,70.65
2022-12-11T06:19:15.192Z,69.99
2022-12-11T06:22:17.423Z,71.18
2022-12-11T06:25:19.752Z,72.93
2022-12-11T06:28:21.963Z,74.31
2022-12-11T06:31:24.381Z,72.84
2022-12-11T06:34:26.683Z,70.53
2022-12-11T06:37:28.881Z,71.49
2022-12-11T06:40:31.369Z,71.57
2022-12-11T06:43:35.371Z,69.61
2022-12-11T06:46:37.661Z,71.17
2022-12-11T06:49:39.963Z,71.03
2022-12-11T06:52:42.237Z,71.38
2022-12-11T06:55:45.318Z,69.98
2022-12-11T06:58:47.755Z,69.95
2022-12-11T07:01:50.067Z,71.48
2022-12-11T07:04:55.302Z,69.54
2022-12-11T07:07:58.185Z,69.28
2022-12-11T07:11:08.719Z,70.48
2022-12-11T07:14:11.207Z,70.05
2022-12-11T07:17:13.485Z,70.23
2022-12-11T07:20:15.889Z,73.39
2022-12-11T07:23:18.504Z,70.62
2022-12-11T07:26:22.467Z,70.41
2022-12-11T07:29:24.843Z,71.12
2022-12-11T07:32:27.309Z,69.29
2022-12-11T07:35:29.741Z,69.22
2022-12-11T07:38:32.286Z,70.66
2022-12-11T07:41:34.753Z,69.56
2022-12-11T07:44:37.048Z,67.98
2022-12-11T07:47:39.300Z,70.38
2022-12-11T07:50:41.562Z,69.64
2022-12-11T07:53:45.427Z,68.47
2022-12-11T07:56:52.928Z,71.50
2022-12-11T07:59:56.504Z,68.08
2022-12-11T08:02:58.996Z,69.00
2022-12-11T08:06:01.243Z,67.69
2022-12-11T08:09:06.291Z,67.95
2022-12-11T08:12:08.555Z,67.31
2022-12-11T08:15:11.535Z,68.42
2022-12-11T08:18:14.416Z,66.32
2022-12-11T08:21:22.594Z,68.25
2022-12-11T08:24:25.009Z,67.20
2022-12-11T08:27:27.844Z,70.11
2022-12-11T08:30:31.932Z,69.34
2022-12-11T08:33:34.943Z,68.62
2022-12-11T08:36:37.559Z,66.73
2022-12-11T08:39:39.938Z,68.35
2022-12-11T08:42:42.332Z,66.77
2022-12-11T08:45:44.831Z,66.65
2022-12-11T08:48:47.259Z,66.05
2022-12-11T08:51:50.229Z,66.42
2022-12-11T08:54:52.615Z,65.79
2022-12-11T08:57:55.417Z,66.88
2022-12-11T09:00:57.875Z,65.61
2022-12-11T09:04:00.221Z,65.09
2022-12-11T09:07:02.547Z,66.28
2022-12-11T09:10:06.141Z,67.24
2022-12-11T09:13:08.567Z,65.64
2022-12-11T09:16:16.449Z,65.49
2022-12-11T09:19:19.708Z,65.44
2022-12-11T09:22:22.107Z,65.23
2022-12-11T09:25:24.499Z,64.88
2022-12-11T09:28:26.810Z,66.53
2022-12-11T09:31:31.699Z,65.92
2022-12-11T09:34:34.102Z,65.00
2022-12-11T09:37:36.786Z,65.47
2022-12-11T09:40:43.396Z,65.45
2022-12-11T09:43:55.124Z,66.23
2022-12-11T09:46:58.265Z,65.50
2022-12-11T09:50:11.897Z,66.13
2022-12-11T09:53:35.200Z,64.52
2022-12-11T09:56:51.233Z,64.56
2022-12-11T10:00:05.677Z,64.23
2022-12-11T10:03:23.654Z,63.43
2022-12-11T10:06:34.750Z,64.90
2022-12-11T10:09:50.517Z,64.24
2022-12-11T10:13:06.697Z,63.29
2022-12-11T10:16:12.137Z,63.22
2022-12-11T10:19:28.501Z,62.80
2022-12-11T10:22:33.212Z,63.77
2022-12-11T10:25:46.580Z,64.01
2022-12-11T10:28:49.183Z,65.54
2022-12-11T10:31:58.392Z,64.04
2022-12-11T10:35:03.291Z,62.16
2022-12-11T10:38:29.676Z,64.18
2022-12-11T10:41:42.716Z,63.19
2022-12-11T10:45:02.329Z,63.34
2022-12-11T10:48:11.664Z,63.22
2022-12-11T10:51:14.649Z,62.77
2022-12-11T10:54:38.148Z,63.50
2022-12-11T10:57:40.537Z,64.15
2022-12-11T11:00:43.016Z,63.16
2022-12-11T11:03:57.109Z,61.63
2022-12-11T11:07:04.199Z,61.92
2022-12-11T11:10:12.469Z,61.52
2022-12-11T11:13:14.746Z,63.55
2022-12-11T11:16:20.035Z,62.65
2022-12-11T11:19:31.609Z,63.45
2022-12-11T11:22:46.159Z,63.52
2022-12-11T11:25:54.830Z,62.33
2022-12-11T11:28:57.549Z,64.48
2022-12-11T11:32:16.078Z,63.38
2022-12-11T11:35:21.314Z,62.01
2022-12-11T11:38:27.199Z,63.68
2022-12-11T11:41:39.014Z,62.68
2022-12-11T11:45:06.082Z,62.36
2022-12-11T11:48:22.806Z,62.09
2022-12-11T11:51:29.899Z,63.66
2022-12-11T11:54:39.624Z,62.82
2022-12-11T11:57:53.260Z,62.04
2022-12-11T12:00:55.571Z,62.21
2022-12-11T12:03:58.092Z,62.02
2022-12-11T12:07:26.728Z,61.67
2022-12-11T12:10:44.672Z,61.13
2022-12-11T12:13:59.931Z,62.04
2022-12-11T12:17:17.927Z,61.87
2022-12-11T12:20:35.923Z,61.45
2022-12-11T12:24:04.586Z,62.37
2022-12-11T12:27:50.960Z,61.76
2022-12-11T12:30:49.604Z,62.26
2022-12-11T12:34:42.770Z,63.29
2022-12-11T12:37:48.137Z,63.68
2022-12-11T12:41:25.195Z,61.72
2022-12-11T12:44:32.699Z,61.19
2022-12-11T12:47:36.324Z,62.51
2022-12-11T12:50:42.890Z,62.35
2022-12-11T12:53:56.323Z,63.45
2022-12-11T12:56:59.445Z,61.29
2022-12-11T13:00:02.349Z,61.49
2022-12-11T13:03:15.208Z,62.51
2022-12-11T13:06:38.136Z,62.59
2022-12-11T13:09:40.519Z,61.31
2022-12-11T13:12:47.214Z,61.38
2022-12-11T13:15:51.911Z,60.53
2022-12-11T13:18:54.681Z,60.00
2022-12-11T13:22:12.638Z,62.00
2022-12-11T13:25:26.197Z,60.98
2022-12-11T13:28:30.126Z,60.22
2022-12-11T13:31:37.769Z,61.34
2022-12-11T13:34:42.344Z,61.87
2022-12-11T13:37:45.899Z,60.58
2022-12-11T13:40:55.074Z,60.40
2022-12-11T13:43:58.082Z,60.70
2022-12-11T13:47:02.347Z,61.41
2022-12-11T13:50:31.394Z,63.84
2022-12-11T13:53:33.783Z,60.41
2022-12-11T13:56:36.098Z,61.25
2022-12-11T13:59:42.521Z,61.38
2022-12-11T14:02:44.828Z,60.68
2022-12-11T14:05:47.348Z,61.20
2022-12-11T14:08:52.313Z,61.74
2022-12-11T14:11:57.472Z,61.44
2022-12-11T14:15:02.054Z,61.34
2022-12-11T14:18:06.920Z,61.06
2022-12-11T14:21:23.535Z,61.02
2022-12-11T14:24:26.163Z,60.64
2022-12-11T14:27:28.855Z,60.71
2022-12-11T14:30:33.431Z,61.40
2022-12-11T14:33:39.135Z,62.22
2022-12-11T14:36:42.435Z,60.34
2022-12-11T14:39:49.106Z,60.84
2022-12-11T14:43:00.117Z,60.36
2022-12-11T14:46:07.793Z,60.27
2022-12-11T14:49:40.479Z,60.82
2022-12-11T14:52:45.677Z,60.44
2022-12-11T14:55:49.446Z,60.43
2022-12-11T14:59:06.683Z,60.77
2022-12-11T15:02:33.936Z,60.21
2022-12-11T15:05:48.606Z,59.30
2022-12-11T15:08:53.040Z,60.90
2022-12-11T15:12:11.847Z,60.59
2022-12-11T15:15:17.297Z,60.73
2022-12-11T15:18:33.400Z,62.32
2022-12-11T15:21:36.233Z,60.45
2022-12-11T15:24:41.243Z,60.33
2022-12-11T15:27:43.645Z,61.51
2022-12-11T15:30:58.080Z,59.88
2022-12-11T15:34:00.512Z,60.21
2022-12-11T15:37:03.058Z,61.15
2022-12-11T15:40:05.870Z,61.23
2022-12-11T15:43:08.935Z,61.75
2022-12-11T15:46:11.260Z,61.03
2022-12-11T15:49:14.584Z,61.28
2022-12-11T15:52:16.869Z,60.04
2022-12-11T15:55:19.915Z,62.45
2022-12-11T15:58:23.465Z,60.66
2022-12-11T16:01:25.796Z,60.51
2022-12-11T16:04:29.609Z,61.85
2022-12-11T16:07:32.861Z,60.78
2022-12-11T16:10:35.280Z,59.54
2022-12-11T16:13:38.821Z,59.35
2022-12-11T16:16:41.066Z,60.62
2022-12-11T16:19:44.875Z,60.70
2022-12-11T16:22:47.119Z,60.42
2022-12-11T16:25:50.653Z,60.91
2022-12-11T16:28:52.964Z,59.19
2022-12-11T16:31:55.442Z,59.25
2022-12-11T16:35:00.805Z,59.82
2022-12-11T16:38:03.319Z,59.02
2022-12-11T16:41:05.970Z,58.98
2022-12-11T16:44:08.418Z,60.06
2022-12-11T16:47:10.700Z,59.02
2022-12-11T16:50:15.322Z,59.65
2022-12-11T16:53:17.704Z,60.41
2022-12-11T16:56:22.347Z,58.45
2022-12-11T16:59:24.666Z,58.57
2022-12-11T17:02:26.967Z,58.74
2022-12-11T17:05:29.245Z,58.83
2022-12-11T17:08:31.738Z,60.92
2022-12-11T17:11:34.035Z,59.20
2022-12-11T17:14:36.564Z,59.75
2022-12-11T17:17:38.950Z,58.24
2022-12-11T17:20:42.390Z,60.11
2022-12-11T17:23:46.003Z,57.87
2022-12-11T17:26:48.329Z,60.49
2022-12-11T17:29:50.915Z,60.65
2022-12-11T17:32:53.191Z,59.41
2022-12-11T17:35:55.539Z,58.13
2022-12-11T17:38:57.955Z,58.72
2022-12-11T17:42:00.665Z,57.69
2022-12-11T17:45:02.974Z,60.03
2022-12-11T17:48:05.441Z,58.70
2022-12-11T17:51:14.588Z,58.24
2022-12-11T17:54:16.864Z,59.25
2022-12-11T17:57:19.131Z,58.02
2022-12-11T18:00:21.514Z,59.95
2022-12-11T18:03:28.090Z,59.39
2022-12-11T18:06:30.990Z,59.33
2022-12-11T18:09:33.352Z,58.37
2022-12-11T18:12:35.769Z,58.29
2022-12-11T18:15:38.353Z,57.82
2022-12-11T18:18:40.909Z,59.74
2022-12-11T18:21:45.810Z,59.49
2022-12-11T18:24:48.181Z,59.55
2022-12-11T18:27:50.765Z,59.39
2022-12-11T18:30:53.216Z,59.68
2022-12-11T18:33:57.319Z,59.04
2022-12-11T18:36:59.665Z,59.14
2022-12-11T18:40:02.264Z,58.93
2022-12-11T18:43:04.572Z,59.96
2022-12-11T18:46:12.753Z,58.34
2022-12-11T18:49:15.678Z,60.21
2022-12-11T18:52:18.263Z,60.82
2022-12-11T18:55:21.002Z,61.65
2022-12-11T18:58:23.326Z,59.09
2022-12-11T19:01:28.862Z,60.71
2022-12-11T19:04:31.252Z,59.84
2022-12-11T19:07:33.761Z,59.37
2022-12-11T19:10:41.740Z,58.59
2022-12-11T19:13:44.531Z,59.63
2022-12-11T19:16:46.818Z,60.00
2022-12-11T19:19:49.072Z,59.90
2022-12-11T19:22:51.366Z,60.78
2022-12-11T19:25:53.816Z,60.75
2022-12-11T19:29:00.062Z,60.76
2022-12-11T19:32:03.065Z,60.75
2022-12-11T19:35:05.634Z,60.15
2022-12-11T19:38:08.546Z,61.79
2022-12-11T19:41:15.530Z,62.27
2022-12-11T19:44:17.828Z,61.69
2022-12-11T19:47:20.166Z,63.07
2022-12-11T19:50:22.451Z,60.03
2022-12-11T19:53:24.927Z,62.56
2022-12-11T19:56:28.475Z,61.24
2022-12-11T19:59:30.837Z,61.90
2022-12-11T20:02:33.072Z,59.86
2022-12-11T20:05:35.665Z,58.67
2022-12-11T20:08:46.013Z,60.70
2022-12-11T20:11:48.779Z,59.82
2022-12-11T20:14:51.058Z,60.39
2022-12-11T20:17:54.416Z,62.19
2022-12-11T20:21:00.543Z,61.47
2022-12-11T20:24:02.938Z,63.94
2022-12-11T20:27:05.649Z,63.34
2022-12-11T20:30:08.400Z,63.88
2022-12-11T20:33:10.669Z,64.19
2022-12-11T20:36:15.953Z,66.60
2022-12-11T20:39:18.278Z,64.01
2022-12-11T20:42:20.550Z,63.74
2022-12-11T20:45:22.821Z,63.53
2022-12-11T20:48:26.412Z,63.61
2022-12-11T20:51:29.208Z,64.36
2022-12-11T20:54:31.633Z,65.26
2022-12-11T20:57:34.000Z,63.59
2022-12-11T21:00:40.180Z,62.90
2022-12-11T21:03:42.603Z,62.89
2022-12-11T21:06:45.027Z,61.90
2022-12-11T21:09:47.328Z,62.42
2022-12-11T21:12:49.703Z,62.39
2022-12-11T21:15:56.305Z,62.36
2022-12-11T21:18:59.018Z,63.16
2022-12-11T21:22:01.251Z,63.92
2022-12-11T21:25:04.594Z,65.46
2022-12-11T21:28:07.344Z,65.71
2022-12-11T21:31:13.435Z,64.82
2022-12-11T21:34:19.390Z,65.14
2022-12-11T21:37:24.374Z,65.00
2022-12-11T21:40:26.915Z,64.14
2022-12-11T21:43:29.159Z,65.90
2022-12-11T21:46:31.992Z,65.35
2022-12-11T21:49:35.189Z,64.43
2022-12-11T21:52:38.427Z,64.96
2022-12-11T21:55:42.344Z,64.93
2022-12-11T21:58:45.544Z,64.09
2022-12-11T22:01:47.820Z,65.29
2022-12-11T22:04:50.560Z,64.41
2022-12-11T22:07:55.645Z,66.56
2022-12-11T22:10:57.988Z,63.92
2022-12-11T22:14:00.709Z,63.86
2022-12-11T22:17:03.126Z,66.28
2022-12-11T22:20:06.903Z,62.82
2022-12-11T22:23:09.209Z,63.77
2022-12-11T22:26:17.446Z,66.92
2022-12-11T22:29:19.709Z,63.88
2022-12-11T22:32:22.071Z,66.01
2022-12-11T22:35:27.294Z,63.96
2022-12-11T22:38:31.034Z,65.16
2022-12-11T22:41:33.418Z,64.07
2022-12-11T22:44:36.191Z,67.74
2022-12-11T22:47:38.796Z,65.69
2022-12-11T22:50:42.738Z,65.23
2022-12-11T22:53:45.113Z,65.34
2022-12-11T22:56:49.182Z,63.96
2022-12-11T22:59:51.538Z,66.24
2022-12-11T23:02:53.946Z,66.11
2022-12-11T23:05:58.754Z,66.65
2022-12-11T23:09:04.014Z,66.46
2022-12-11T23:12:06.903Z,65.94
2022-12-11T23:15:10.540Z,68.26
2022-12-11T23:18:13.042Z,65.61
2022-12-11T23:21:15.480Z,64.90
2022-12-11T23:24:17.833Z,64.75
2022-12-11T23:27:20.072Z,65.38
2022-12-11T23:30:22.492Z,66.57
2022-12-11T23:33:25.313Z,66.16
2022-12-11T23:36:30.550Z,65.54
2022-12-11T23:39:33.891Z,65.34
2022-12-11T23:42:36.137Z,64.47
2022-12-11T23:45:38.467Z,64.60
2022-12-11T23:48:41.861Z,63.86
2022-12-11T23:51:44.095Z,65.82
2022-12-11T23:54:46.535Z,65.16
2022-12-11T23:57:48.822Z,65.43
